Time;durP1;ratioP1;P1;durP2;ratioP2;P2;SDS_P1;SDS_P2;PMS_P1;PMS_P2;Temp;Humidity;BMP_temperature;BMP_pressure;BME280_temperature;BME280_humidity;BME280_pressure;Samples;Min_cycle;Max_cycle;Signal;HPM_P1;HPM_P2
2022/07/13 00:00:30;;;;;;;1.90;1.70;;;21.90;99.90;;;;;;5050521;28;20458;-81
2022/07/13 00:02:56;;;;;;;2.20;1.60;;;21.80;99.90;;;;;;5054775;28;20472;-81
2022/07/13 00:05:23;;;;;;;3.50;2.43;;;21.90;99.90;;;;;;5061425;28;20485;-80
2022/07/13 00:07:51;;;;;;;2.30;2.10;;;21.90;99.90;;;;;;5053379;28;20577;-80
2022/07/13 00:10:18;;;;;;;3.07;1.97;;;21.90;99.90;;;;;;5061206;28;20518;-80
2022/07/13 00:12:45;;;;;;;2.30;2.10;;;21.90;99.90;;;;;;5057258;28;20481;-81
2022/07/13 00:15:12;;;;;;;2.80;2.10;;;21.90;99.90;;;;;;5063082;28;20777;-82
2022/07/13 00:17:39;;;;;;;4.10;2.07;;;21.90;99.90;;;;;;5050981;28;21025;-81
2022/07/13 00:20:07;;;;;;;3.53;1.80;;;21.80;99.90;;;;;;5052653;28;20447;-81
2022/07/13 00:22:34;;;;;;;2.07;1.87;;;21.80;99.90;;;;;;5059962;28;20465;-80
2022/07/13 00:25:02;;;;;;;3.13;1.77;;;21.80;99.90;;;;;;5054611;28;20488;-79
2022/07/13 00:27:29;;;;;;;3.57;2.40;;;21.70;99.90;;;;;;5048638;28;20482;-81
2022/07/13 00:29:56;;;;;;;2.40;2.10;;;21.60;99.90;;;;;;5059930;28;20480;-80
2022/07/13 00:32:23;;;;;;;4.37;2.77;;;21.60;99.90;;;;;;5048048;28;20447;-80
2022/07/13 00:34:50;;;;;;;2.60;2.27;;;21.60;99.90;;;;;;5058637;28;20499;-81
2022/07/13 00:37:17;;;;;;;2.80;2.37;;;21.70;99.90;;;;;;5051477;28;20514;-82
2022/07/13 00:39:44;;;;;;;6.67;2.83;;;21.70;99.90;;;;;;5057754;28;20482;-80
2022/07/13 00:42:12;;;;;;;2.57;2.37;;;21.50;99.90;;;;;;5054208;28;20964;-82
2022/07/13 00:44:39;;;;;;;2.67;2.20;;;21.40;99.90;;;;;;5053112;28;20478;-81
2022/07/13 00:47:06;;;;;;;3.33;2.53;;;21.30;99.90;;;;;;5050707;28;21007;-81
2022/07/13 00:49:33;;;;;;;2.27;1.97;;;21.30;99.90;;;;;;5055072;28;20482;-80
2022/07/13 00:52:00;;;;;;;3.43;2.03;;;21.30;99.90;;;;;;5060586;28;20441;-83
2022/07/13 00:54:30;;;;;;;2.50;1.80;;;21.30;99.90;;;;;;5047769;28;20636;-82
2022/07/13 00:56:59;;;;;;;2.00;1.67;;;21.30;99.90;;;;;;5053942;28;20452;-82
2022/07/13 00:59:27;;;;;;;1.83;1.60;;;21.30;99.90;;;;;;5048773;28;20443;-81
2022/07/13 01:01:54;;;;;;;2.13;1.50;;;21.20;99.90;;;;;;5057201;28;20447;-81
2022/07/13 01:04:23;;;;;;;3.83;1.60;;;21.20;99.90;;;;;;5071596;28;20469;-82
2022/07/13 01:06:51;;;;;;;2.70;1.67;;;21.10;99.90;;;;;;5062473;28;20451;-82
2022/07/13 01:09:18;;;;;;;2.30;1.60;;;21.10;99.90;;;;;;5065302;28;20484;-82
2022/07/13 01:11:45;;;;;;;1.93;1.50;;;21.20;99.90;;;;;;5066038;28;20467;-82
2022/07/13 01:14:13;;;;;;;3.00;1.37;;;21.20;99.90;;;;;;5063158;28;20492;-81
2022/07/13 01:16:42;;;;;;;1.67;1.57;;;21.30;99.90;;;;;;5071778;28;20439;-82
2022/07/13 01:19:12;;;;;;;1.83;1.50;;;21.30;99.90;;;;;;5064879;28;20463;-81
2022/07/13 01:21:43;;;;;;;1.83;1.50;;;21.40;99.90;;;;;;5078820;28;20433;-81
2022/07/13 01:24:12;;;;;;;2.13;1.93;;;21.20;99.90;;;;;;5072907;28;20479;-80
2022/07/13 01:26:40;;;;;;;2.73;2.00;;;21.30;99.90;;;;;;5056355;28;20453;-79
2022/07/13 01:29:07;;;;;;;1.70;1.60;;;21.30;99.90;;;;;;5067190;28;20481;-80
2022/07/13 01:31:35;;;;;;;2.80;1.73;;;21.30;99.90;;;;;;5045760;28;20466;-81
2022/07/13 01:34:02;;;;;;;2.40;1.93;;;21.30;99.90;;;;;;5058522;28;20539;-81
2022/07/13 01:36:30;;;;;;;2.10;1.80;;;21.30;99.90;;;;;;5051448;28;20460;-82
2022/07/13 01:38:58;;;;;;;2.33;1.80;;;21.30;99.90;;;;;;5055043;28;20450;-82
2022/07/13 01:41:29;;;;;;;1.70;1.53;;;21.30;99.90;;;;;;5048106;28;20453;-82
2022/07/13 01:43:57;;;;;;;1.83;1.73;;;21.20;99.90;;;;;;5049008;28;20482;-82
2022/07/13 01:46:24;;;;;;;2.03;1.83;;;21.30;99.90;;;;;;5059986;28;20484;-82
2022/07/13 01:48:51;;;;;;;1.70;1.60;;;21.30;99.90;;;;;;5055855;28;20998;-82
2022/07/13 01:51:19;;;;;;;3.00;1.87;;;21.30;99.90;;;;;;5054931;28;20452;-80
2022/07/13 01:53:46;;;;;;;3.40;2.03;;;21.30;99.90;;;;;;5058544;28;20965;-81
2022/07/13 01:56:13;;;;;;;2.50;2.27;;;21.30;99.90;;;;;;5059609;28;20537;-82
2022/07/13 01:58:41;;;;;;;3.20;2.40;;;21.20;99.90;;;;;;5056403;28;20468;-83
2022/07/13 02:01:08;;;;;;;1.90;1.70;;;21.10;99.90;;;;;;5054246;28;20997;-83
2022/07/13 02:03:35;;;;;;;4.67;2.07;;;21.10;99.90;;;;;;5047620;28;20550;-81
2022/07/13 02:06:03;;;;;;;3.10;2.00;;;21.10;99.90;;;;;;5057681;28;20452;-81
2022/07/13 02:08:30;;;;;;;2.03;1.80;;;21.20;99.90;;;;;;5075288;28;20469;-82
2022/07/13 02:10:57;;;;;;;2.93;2.63;;;21.00;99.90;;;;;;5078669;28;20448;-83
2022/07/13 02:13:24;;;;;;;2.70;2.20;;;21.00;99.90;;;;;;5078686;28;20465;-82
2022/07/13 02:15:52;;;;;;;4.60;1.97;;;20.90;99.90;;;;;;5078663;28;20422;-82
2022/07/13 02:18:20;;;;;;;4.17;2.17;;;20.90;99.90;;;;;;5064962;28;20448;-82
2022/07/13 02:20:47;;;;;;;2.10;1.90;;;20.80;99.90;;;;;;5066472;28;20461;-82
2022/07/13 02:23:15;;;;;;;3.97;2.80;;;20.90;99.90;;;;;;5058618;28;20478;-82
2022/07/13 02:25:42;;;;;;;2.47;2.27;;;20.80;99.90;;;;;;5058429;28;20462;-81
2022/07/13 02:28:09;;;;;;;5.07;2.60;;;20.70;99.90;;;;;;5058211;28;20495;-82
2022/07/13 02:30:36;;;;;;;3.67;2.07;;;20.70;99.90;;;;;;5069696;28;20437;-81
2022/07/13 02:33:21;;;;;;;3.47;2.33;;;20.70;99.90;;;;;;5066315;28;20455;-81
2022/07/13 02:35:49;;;;;;;3.50;2.50;;;20.80;99.90;;;;;;5071857;28;20435;-81
2022/07/13 02:38:16;;;;;;;3.50;2.10;;;20.80;99.90;;;;;;5065421;28;20443;-82
2022/07/13 02:40:43;;;;;;;2.80;2.30;;;20.80;99.90;;;;;;5060782;28;20532;-81
2022/07/13 02:43:10;;;;;;;2.10;1.90;;;20.70;99.90;;;;;;5064543;28;20465;-82
2022/07/13 02:45:37;;;;;;;2.27;1.90;;;20.80;99.90;;;;;;5060664;28;20464;-82
2022/07/13 02:48:04;;;;;;;3.47;3.17;;;20.80;99.90;;;;;;5058695;28;20433;-81
2022/07/13 02:50:32;;;;;;;5.97;2.23;;;20.80;99.90;;;;;;5057444;28;20526;-81
2022/07/13 02:52:59;;;;;;;2.40;2.20;;;20.80;99.90;;;;;;5060144;28;20477;-81
2022/07/13 02:55:26;;;;;;;3.10;1.90;;;20.80;99.90;;;;;;5054952;28;20431;-82
2022/07/13 02:57:53;;;;;;;2.43;2.23;;;20.80;99.90;;;;;;5050924;28;20453;-82
2022/07/13 03:00:20;;;;;;;2.10;1.90;;;20.90;99.90;;;;;;5051555;28;20456;-81
2022/07/13 03:02:47;;;;;;;2.23;2.03;;;20.90;99.90;;;;;;5056099;28;20867;-82
2022/07/13 03:05:14;;;;;;;2.03;1.87;;;20.90;99.90;;;;;;5060394;28;20543;-81
2022/07/13 03:07:42;;;;;;;3.93;2.07;;;20.90;99.90;;;;;;5046149;28;20511;-82
2022/07/13 03:10:10;;;;;;;4.70;3.10;;;20.90;99.90;;;;;;5053873;28;20504;-81
2022/07/13 03:12:37;;;;;;;4.33;2.50;;;20.80;99.90;;;;;;5047231;28;20474;-81
2022/07/13 03:15:04;;;;;;;3.80;2.30;;;20.70;99.90;;;;;;5053750;28;20492;-81
2022/07/13 03:17:31;;;;;;;8.07;2.73;;;20.80;99.90;;;;;;5054806;28;20486;-81
2022/07/13 03:19:58;;;;;;;4.93;2.50;;;20.80;99.90;;;;;;5052986;28;20485;-82
2022/07/13 03:22:25;;;;;;;3.73;1.93;;;20.80;99.90;;;;;;5063892;28;20544;-81
2022/07/13 03:24:53;;;;;;;2.90;2.50;;;20.80;99.90;;;;;;5053254;28;20481;-81
2022/07/13 03:27:20;;;;;;;2.73;1.67;;;20.90;99.90;;;;;;5051289;28;20482;-81
2022/07/13 03:29:47;;;;;;;2.43;1.97;;;20.90;99.90;;;;;;5052352;28;20504;-82
2022/07/13 03:32:14;;;;;;;2.30;2.10;;;20.90;99.90;;;;;;5058862;28;20498;-81
2022/07/13 03:34:41;;;;;;;3.33;2.00;;;20.90;99.90;;;;;;5064043;28;20488;-82
2022/07/13 03:37:08;;;;;;;2.70;2.17;;;20.90;99.90;;;;;;5061959;28;20451;-82
2022/07/13 03:39:36;;;;;;;3.87;2.50;;;20.80;99.90;;;;;;5056811;28;20446;-82
2022/07/13 03:42:04;;;;;;;2.00;1.90;;;20.80;99.90;;;;;;5046662;28;20569;-82
2022/07/13 03:44:31;;;;;;;2.30;2.10;;;20.80;99.90;;;;;;5059896;28;20458;-81
2022/07/13 03:46:58;;;;;;;2.67;2.40;;;20.90;99.90;;;;;;5055364;28;20499;-80
2022/07/13 03:49:25;;;;;;;2.40;2.07;;;20.90;99.90;;;;;;5067455;28;20476;-82
2022/07/13 03:51:52;;;;;;;3.33;2.47;;;20.90;99.90;;;;;;5053231;28;20528;-80
2022/07/13 03:54:19;;;;;;;3.90;2.23;;;21.00;99.90;;;;;;5055045;28;20930;-82
2022/07/13 03:56:46;;;;;;;2.97;2.10;;;21.00;99.90;;;;;;5046667;28;20522;-82
2022/07/13 03:59:15;;;;;;;2.53;2.00;;;21.10;99.90;;;;;;5050187;28;20458;-82
2022/07/13 04:01:42;;;;;;;2.83;2.27;;;21.10;99.90;;;;;;5045881;28;20492;-82
2022/07/13 04:04:09;;;;;;;2.30;2.10;;;21.30;99.90;;;;;;5046026;28;20529;-82
2022/07/13 04:06:36;;;;;;;4.40;2.30;;;21.30;99.90;;;;;;5047051;28;20429;-82
2022/07/13 04:09:04;;;;;;;3.30;2.37;;;21.30;99.90;;;;;;5046262;28;20478;-81
2022/07/13 04:11:31;;;;;;;2.50;1.83;;;21.30;99.90;;;;;;5045972;28;20527;-81
2022/07/13 04:13:58;;;;;;;3.07;1.90;;;21.30;99.90;;;;;;5045592;28;20501;-80
2022/07/13 04:16:26;;;;;;;3.60;2.63;;;21.30;99.90;;;;;;5047561;28;20486;-79
2022/07/13 04:18:53;;;;;;;3.00;2.47;;;21.40;99.90;;;;;;5050229;28;20483;-80
2022/07/13 04:21:19;;;;;;;2.37;2.17;;;21.40;99.90;;;;;;5060969;28;20477;-81
2022/07/13 04:23:46;;;;;;;4.80;1.87;;;21.50;99.90;;;;;;5049042;28;20472;-82
2022/07/13 04:26:13;;;;;;;3.17;2.17;;;21.60;99.90;;;;;;5061036;28;20460;-82
2022/07/13 04:28:40;;;;;;;2.10;1.93;;;21.70;99.90;;;;;;5052795;28;20446;-82
2022/07/13 04:31:07;;;;;;;3.37;1.93;;;21.80;99.90;;;;;;5054713;28;20510;-82
2022/07/13 04:33:35;;;;;;;2.83;2.40;;;21.90;99.90;;;;;;5063561;28;20489;-82
2022/07/13 04:36:02;;;;;;;4.70;2.93;;;21.70;99.90;;;;;;5080227;28;20466;-82
2022/07/13 04:38:29;;;;;;;4.27;2.50;;;21.70;99.90;;;;;;5072025;28;20450;-82
2022/07/13 04:40:56;;;;;;;6.00;2.40;;;21.60;99.90;;;;;;5078880;28;20476;-81
2022/07/13 04:43:23;;;;;;;5.03;2.70;;;21.60;99.90;;;;;;5071852;28;20475;-81
2022/07/13 04:45:49;;;;;;;2.50;2.30;;;21.50;99.90;;;;;;5065634;28;20435;-81
2022/07/13 04:48:18;;;;;;;3.80;2.80;;;21.50;99.90;;;;;;5069265;28;20463;-81
2022/07/13 04:50:46;;;;;;;4.97;3.30;;;21.50;99.90;;;;;;5049776;28;20512;-82
2022/07/13 04:53:13;;;;;;;3.07;2.40;;;21.50;99.90;;;;;;5046450;28;20467;-81
2022/07/13 04:55:40;;;;;;;2.83;2.63;;;21.60;99.90;;;;;;5047334;28;20533;-82
2022/07/13 04:58:07;;;;;;;3.30;2.77;;;21.60;99.90;;;;;;5053483;28;20449;-83
2022/07/13 05:00:34;;;;;;;3.50;2.40;;;21.70;99.90;;;;;;5054665;28;20454;-82
2022/07/13 05:03:01;;;;;;;2.40;2.20;;;21.70;99.90;;;;;;5049166;28;20498;-82
2022/07/13 05:05:31;;;;;;;4.07;3.50;;;21.80;99.90;;;;;;5058278;28;20446;-82
2022/07/13 05:08:00;;;;;;;5.00;2.40;;;21.90;99.90;;;;;;5051713;28;20455;-82
2022/07/13 05:10:26;;;;;;;4.50;2.40;;;21.90;99.90;;;;;;5061305;28;20542;-81
2022/07/13 05:12:54;;;;;;;2.80;2.60;;;22.00;99.90;;;;;;5064312;28;20461;-80
2022/07/13 05:15:21;;;;;;;4.90;2.83;;;22.00;99.90;;;;;;5061032;28;20429;-78
2022/07/13 05:17:48;;;;;;;4.80;2.70;;;22.00;99.90;;;;;;5054658;28;20482;-80
2022/07/13 05:20:15;;;;;;;5.40;2.70;;;22.00;99.90;;;;;;5054599;28;20439;-79
2022/07/13 05:22:41;;;;;;;4.93;2.73;;;22.10;99.90;;;;;;5068140;28;20469;-80
2022/07/13 05:25:10;;;;;;;4.97;3.00;;;22.20;99.90;;;;;;5069286;28;20935;-80
2022/07/13 05:27:37;;;;;;;4.50;2.77;;;22.20;99.90;;;;;;5060849;28;20446;-79
2022/07/13 05:30:04;;;;;;;6.00;2.80;;;22.20;99.90;;;;;;5063416;28;20572;-80
2022/07/13 05:32:31;;;;;;;3.53;2.50;;;22.10;99.90;;;;;;5061006;28;20442;-79
2022/07/13 05:34:58;;;;;;;5.20;3.07;;;22.30;99.90;;;;;;5066447;28;20493;-80
2022/07/13 05:37:25;;;;;;;3.57;2.73;;;22.30;99.90;;;;;;5058381;28;20481;-81
2022/07/13 05:39:52;;;;;;;2.37;2.17;;;22.20;99.90;;;;;;5057461;28;20466;-82
2022/07/13 05:42:20;;;;;;;4.37;3.10;;;22.30;99.90;;;;;;5052266;28;20503;-81
2022/07/13 05:44:47;;;;;;;8.27;2.70;;;22.50;99.90;;;;;;5052662;28;20459;-82
2022/07/13 05:47:14;;;;;;;4.37;3.20;;;22.60;99.90;;;;;;5058424;28;20473;-82
2022/07/13 05:49:41;;;;;;;3.70;3.40;;;22.60;99.90;;;;;;5050568;28;20561;-83
2022/07/13 05:52:07;;;;;;;2.77;2.57;;;22.80;99.90;;;;;;5057341;28;20513;-83
2022/07/13 05:54:35;;;;;;;3.33;3.03;;;22.90;99.90;;;;;;5044006;28;20497;-82
2022/07/13 05:57:02;;;;;;;5.00;3.47;;;23.00;99.90;;;;;;5059455;28;20457;-81
2022/07/13 05:59:32;;;;;;;3.90;2.70;;;23.20;99.90;;;;;;5059635;28;20454;-81
2022/07/13 06:01:59;;;;;;;4.53;3.10;;;23.40;99.90;;;;;;5047446;28;20443;-84
2022/07/13 06:04:27;;;;;;;6.60;3.53;;;23.60;99.90;;;;;;5059422;28;20520;-82
2022/07/13 06:06:53;;;;;;;4.27;3.90;;;23.70;99.90;;;;;;5047253;28;20482;-82
2022/07/13 06:09:20;;;;;;;7.60;3.70;;;23.60;99.90;;;;;;5059029;28;20485;-82
2022/07/13 06:11:47;;;;;;;49.60;19.90;;;23.60;99.90;;;;;;5056005;28;20466;-82
2022/07/13 06:14:14;;;;;;;6.30;3.50;;;23.70;99.90;;;;;;5063377;28;20497;-82
2022/07/13 06:16:43;;;;;;;4.30;3.77;;;23.60;99.90;;;;;;5059307;28;20451;-84
2022/07/13 06:19:09;;;;;;;3.83;3.50;;;23.60;99.90;;;;;;5051785;28;20449;-83
2022/07/13 06:21:36;;;;;;;6.23;4.37;;;23.60;99.90;;;;;;5052145;28;20438;-83
2022/07/13 06:24:03;;;;;;;4.00;3.70;;;23.60;99.90;;;;;;5056137;28;20498;-82
2022/07/13 06:26:31;;;;;;;3.80;3.27;;;23.70;99.90;;;;;;5049091;28;20502;-83
2022/07/13 06:28:58;;;;;;;4.20;3.53;;;23.90;99.90;;;;;;5054157;28;20443;-82
2022/07/13 06:31:24;;;;;;;4.30;3.10;;;24.00;99.80;;;;;;5060583;28;20922;-82
2022/07/13 06:33:52;;;;;;;7.53;3.80;;;24.10;99.90;;;;;;5048816;28;20497;-82
2022/07/13 06:36:19;;;;;;;5.70;3.40;;;24.20;99.60;;;;;;5051822;28;20496;-83
2022/07/13 06:38:46;;;;;;;4.63;3.30;;;24.30;99.60;;;;;;5056241;28;20964;-83
2022/07/13 06:41:13;;;;;;;7.60;3.37;;;24.20;99.10;;;;;;5049373;28;20443;-82
2022/07/13 06:43:40;;;;;;;4.37;3.10;;;24.10;99.50;;;;;;5048395;28;20478;-85
2022/07/13 06:46:07;;;;;;;3.20;2.90;;;24.20;99.20;;;;;;5048808;28;20464;-82
2022/07/13 06:48:35;;;;;;;8.50;3.20;;;24.40;99.40;;;;;;5052648;28;20469;-83
2022/07/13 06:51:04;;;;;;;3.93;2.90;;;24.50;99.00;;;;;;5050276;28;20542;-84
2022/07/13 06:53:31;;;;;;;6.80;3.70;;;24.50;98.40;;;;;;5054061;28;20518;-83
2022/07/13 06:55:58;;;;;;;4.77;3.10;;;24.50;97.70;;;;;;5048508;28;20439;-83
2022/07/13 06:58:25;;;;;;;9.07;3.90;;;24.50;97.80;;;;;;5049842;28;20539;-83
2022/07/13 07:00:52;;;;;;;2.67;2.37;;;24.40;97.70;;;;;;5052535;28;20526;-84
2022/07/13 07:03:19;;;;;;;3.43;3.10;;;24.30;97.90;;;;;;5047107;28;20483;-84
2022/07/13 07:05:46;;;;;;;3.90;3.33;;;24.40;97.60;;;;;;5046785;28;21050;-83
2022/07/13 07:08:16;;;;;;;3.60;3.17;;;24.50;97.90;;;;;;5048156;28;20426;-84
2022/07/13 07:10:43;;;;;;;4.40;3.70;;;24.60;97.80;;;;;;5047825;28;20938;-83
2022/07/13 07:13:10;;;;;;;10.90;3.07;;;24.90;97.60;;;;;;5046206;28;20466;-82
2022/07/13 07:15:37;;;;;;;3.97;2.73;;;24.90;97.20;;;;;;5053729;28;20510;-83
2022/07/13 07:18:04;;;;;;;5.07;3.60;;;24.90;97.00;;;;;;5056400;28;20458;-84
2022/07/13 07:20:31;;;;;;;5.13;3.30;;;25.00;96.80;;;;;;5050807;28;20510;-81
2022/07/13 07:22:58;;;;;;;12.47;7.90;;;24.90;96.40;;;;;;5046786;28;20550;-82
2022/07/13 07:25:26;;;;;;;4.77;3.87;;;25.00;96.30;;;;;;5053541;28;20849;-83
2022/07/13 07:27:54;;;;;;;5.13;2.60;;;25.10;96.00;;;;;;5054796;28;20534;-83
2022/07/13 07:30:21;;;;;;;3.60;3.30;;;25.10;95.70;;;;;;5052941;28;20478;-84
2022/07/13 07:32:48;;;;;;;6.63;4.50;;;25.30;95.30;;;;;;5047616;28;20453;-83
2022/07/13 07:35:15;;;;;;;7.83;5.53;;;25.40;94.90;;;;;;5058895;28;20453;-83
2022/07/13 07:37:42;;;;;;;4.37;3.07;;;25.40;94.50;;;;;;5044110;28;20462;-84
2022/07/13 07:40:10;;;;;;;5.13;3.07;;;25.40;94.40;;;;;;5044882;28;20875;-83
2022/07/13 07:42:38;;;;;;;3.17;2.17;;;25.50;94.20;;;;;;5044973;28;20453;-82
2022/07/13 07:45:08;;;;;;;4.03;2.40;;;25.60;94.20;;;;;;5044970;28;20964;-82
2022/07/13 07:47:35;;;;;;;4.30;2.80;;;25.80;93.90;;;;;;5047837;28;20454;-84
2022/07/13 07:50:02;;;;;;;3.30;2.40;;;26.00;93.70;;;;;;5049541;28;20530;-80
2022/07/13 07:52:29;;;;;;;2.70;2.40;;;26.10;93.40;;;;;;5049892;28;20449;-82
2022/07/13 07:54:56;;;;;;;3.13;2.37;;;26.10;93.50;;;;;;5054815;28;20561;-82
2022/07/13 07:57:23;;;;;;;3.67;3.37;;;26.00;92.90;;;;;;5046482;28;20453;-82
2022/07/13 07:59:52;;;;;;;3.27;2.27;;;26.00;93.20;;;;;;5049537;28;20475;-83
2022/07/13 08:02:18;;;;;;;6.03;2.50;;;26.00;93.10;;;;;;5049056;28;20513;-83
2022/07/13 08:04:46;;;;;;;2.47;2.00;;;26.10;92.70;;;;;;5067946;28;20470;-82
2022/07/13 08:07:13;;;;;;;2.70;1.97;;;26.00;92.70;;;;;;5054362;28;20545;-83
2022/07/13 08:09:40;;;;;;;5.07;2.70;;;26.00;92.40;;;;;;5060649;28;20472;-83
2022/07/13 08:12:07;;;;;;;2.43;1.77;;;26.00;92.90;;;;;;5059233;28;20471;-83
2022/07/13 08:14:34;;;;;;;9.10;2.40;;;26.00;92.40;;;;;;5051272;28;20517;-82
2022/07/13 08:17:02;;;;;;;4.77;2.40;;;26.20;91.80;;;;;;5049591;28;20455;-83
2022/07/13 08:19:29;;;;;;;8.97;3.73;;;26.30;91.70;;;;;;5065595;28;20454;-83
2022/07/13 08:21:55;;;;;;;3.50;2.50;;;26.20;91.30;;;;;;5055727;28;20470;-82
2022/07/13 08:24:22;;;;;;;3.80;2.03;;;26.30;91.60;;;;;;5059007;28;20481;-83
2022/07/13 08:26:52;;;;;;;5.00;3.70;;;26.50;91.40;;;;;;5053025;28;20530;-83
2022/07/13 08:29:19;;;;;;;5.80;2.70;;;26.50;91.20;;;;;;5067824;28;20451;-82
2022/07/13 08:31:46;;;;;;;5.13;2.40;;;26.60;91.40;;;;;;5052455;28;20487;-81
2022/07/13 08:39:44;;;;;;;3.60;2.80;;;27.60;90.10;;;;;;5061114;28;20422;-81
2022/07/13 08:42:13;;;;;;;4.63;2.73;;;27.80;89.80;;;;;;5064787;28;20442;-82
2022/07/13 08:44:41;;;;;;;4.10;2.23;;;28.00;89.10;;;;;;5065826;28;20459;-82
2022/07/13 08:47:10;;;;;;;3.70;2.63;;;27.90;88.70;;;;;;5053439;28;20471;-83
2022/07/13 08:49:38;;;;;;;4.00;2.50;;;28.10;88.50;;;;;;5055595;28;20446;-82
2022/07/13 08:52:06;;;;;;;3.33;2.27;;;28.60;87.80;;;;;;5050522;28;20542;-82
2022/07/13 08:54:33;;;;;;;5.40;4.57;;;28.90;86.70;;;;;;5056253;28;20473;-82
2022/07/13 08:57:00;;;;;;;4.73;2.70;;;29.30;85.40;;;;;;5056279;28;20526;-82
2022/07/13 08:59:27;;;;;;;3.83;2.20;;;30.10;83.50;;;;;;5047010;28;20494;-82
2022/07/13 09:01:54;;;;;;;3.00;2.70;;;30.80;81.70;;;;;;5053127;28;20494;-83
2022/07/13 09:04:22;;;;;;;3.97;2.90;;;31.40;78.90;;;;;;5062546;28;20501;-82
2022/07/13 09:06:51;;;;;;;3.13;2.47;;;32.30;76.80;;;;;;5052177;28;20454;-83
2022/07/13 09:09:33;;;;;;;6.27;2.20;;;33.70;73.20;;;;;;5052070;28;20461;-82
2022/07/13 09:12:19;;;;;;;4.30;2.80;;;34.50;68.70;;;;;;5056450;28;20470;-82
2022/07/13 09:14:52;;;;;;;5.03;2.40;;;35.00;65.00;;;;;;5051526;28;20492;-84
2022/07/13 09:17:29;;;;;;;6.33;3.57;;;35.20;64.60;;;;;;5046966;28;20435;-84
2022/07/13 09:19:56;;;;;;;6.27;2.93;;;35.90;62.90;;;;;;5056670;28;20461;-83
2022/07/13 09:22:24;;;;;;;4.33;3.00;;;36.50;59.80;;;;;;5047934;28;20983;-84
2022/07/13 09:24:53;;;;;;;5.97;3.07;;;36.50;59.60;;;;;;5045129;28;20463;-83
2022/07/13 09:27:22;;;;;;;3.70;3.20;;;36.60;58.80;;;;;;5046802;28;20455;-83
2022/07/13 09:29:49;;;;;;;4.87;3.20;;;37.00;57.50;;;;;;5045458;28;20462;-84
2022/07/13 09:32:16;;;;;;;3.67;2.63;;;37.30;56.70;;;;;;5046889;28;21083;-86
2022/07/13 09:34:54;;;;;;;6.10;3.00;;;37.20;56.10;;;;;;5049194;28;20497;-84
2022/07/13 09:37:24;;;;;;;3.97;3.00;;;37.10;56.20;;;;;;5047630;28;20462;-82
2022/07/13 09:40:05;;;;;;;4.40;2.83;;;36.60;55.60;;;;;;5047653;28;20796;-82
2022/07/13 09:42:34;;;;;;;5.93;3.17;;;36.40;56.70;;;;;;5048599;28;20455;-82
2022/07/13 09:47:48;;;;;;;5.67;2.80;;;36.40;56.10;;;;;;5053711;28;20447;-83
2022/07/13 09:50:17;;;;;;;3.47;3.17;;;36.60;56.30;;;;;;5057775;28;20439;-82
2022/07/13 09:52:47;;;;;;;3.00;2.33;;;36.70;55.50;;;;;;5056967;28;20538;-83
2022/07/13 09:55:19;;;;;;;7.23;3.60;;;36.70;55.30;;;;;;5053930;28;20526;-84
2022/07/13 09:57:49;;;;;;;3.63;3.23;;;36.80;55.60;;;;;;5054175;28;20771;-84
2022/07/13 10:00:18;;;;;;;9.50;3.50;;;36.30;54.30;;;;;;5058262;28;20836;-83
2022/07/13 10:02:48;;;;;;;5.93;3.50;;;36.10;54.50;;;;;;5061197;28;20439;-84
2022/07/13 10:05:16;;;;;;;7.93;4.73;;;35.60;54.70;;;;;;5052966;28;20454;-83
2022/07/13 10:07:43;;;;;;;3.70;3.20;;;35.00;56.20;;;;;;5048454;28;20537;-83
2022/07/13 10:10:13;;;;;;;4.60;3.27;;;35.10;56.30;;;;;;5049445;28;20450;-81
2022/07/13 10:12:41;;;;;;;5.33;3.03;;;34.40;58.60;;;;;;5046187;28;20499;-85
2022/07/13 10:15:10;;;;;;;7.90;2.70;;;34.50;57.90;;;;;;5049306;28;20522;-83
2022/07/13 10:17:38;;;;;;;3.30;2.83;;;35.00;58.00;;;;;;5048999;28;20474;-84
2022/07/13 10:20:09;;;;;;;4.23;2.37;;;35.60;57.50;;;;;;5050461;28;20431;-83
2022/07/13 10:22:40;;;;;;;4.17;3.13;;;36.30;56.30;;;;;;5051619;28;20435;-82
2022/07/13 10:25:08;;;;;;;4.90;3.20;;;36.60;55.60;;;;;;5050477;28;20430;-81
2022/07/13 10:27:38;;;;;;;4.20;3.20;;;36.80;55.40;;;;;;5049605;28;20443;-82
2022/07/13 10:30:07;;;;;;;10.10;3.20;;;36.60;55.20;;;;;;5048004;28;20436;-81
2022/07/13 10:32:35;;;;;;;5.40;3.93;;;36.30;55.10;;;;;;5049774;28;20481;-84
2022/07/13 10:35:05;;;;;;;5.40;3.33;;;36.50;55.40;;;;;;5060602;28;21006;-82
2022/07/13 10:38:07;;;;;;;3.90;2.83;;;36.50;55.90;;;;;;5063073;28;20493;-84
2022/07/13 10:40:36;;;;;;;6.00;3.63;;;36.60;56.00;;;;;;5047392;28;20528;-84
2022/07/13 10:43:19;;;;;;;5.00;2.90;;;36.40;56.70;;;;;;5065426;28;20504;-83
2022/07/13 10:45:51;;;;;;;4.97;3.53;;;35.80;57.60;;;;;;5062062;28;20447;-84
2022/07/13 10:48:45;;;;;;;5.87;3.77;;;35.10;58.60;;;;;;5061520;28;20451;-84
2022/07/13 10:51:23;;;;;;;5.70;3.30;;;34.60;59.90;;;;;;5066508;28;20482;-83
2022/07/13 10:54:19;;;;;;;4.83;3.77;;;34.10;61.60;;;;;;5047863;28;20470;-85
2022/07/13 10:57:12;;;;;;;6.23;3.60;;;33.90;61.70;;;;;;5048335;28;20455;-83
2022/07/13 10:59:50;;;;;;;6.33;3.73;;;33.60;62.60;;;;;;5058736;28;20443;-82
2022/07/13 11:02:50;;;;;;;4.93;4.00;;;33.80;63.80;;;;;;5059229;28;20450;-82
2022/07/13 11:05:18;;;;;;;6.50;4.10;;;34.00;62.70;;;;;;5071572;28;20482;-82
2022/07/13 11:07:47;;;;;;;10.67;5.40;;;33.90;63.30;;;;;;5061819;28;20446;-82
2022/07/13 11:10:23;;;;;;;7.20;4.27;;;33.80;63.60;;;;;;5051258;28;20475;-82
2022/07/13 11:13:01;;;;;;;6.67;4.30;;;33.60;64.70;;;;;;5058572;28;20493;-82
2022/07/13 11:15:44;;;;;;;7.37;5.60;;;33.00;65.50;;;;;;5049444;28;20458;-84
2022/07/13 11:18:31;;;;;;;5.63;4.20;;;32.70;66.70;;;;;;5053219;28;20478;-84
2022/07/13 11:21:00;;;;;;;6.10;4.57;;;32.60;66.90;;;;;;5055430;28;20430;-83
2022/07/13 11:26:20;;;;;;;5.83;4.77;;;32.70;67.80;;;;;;5060608;28;20463;-83
2022/07/13 11:28:54;;;;;;;5.70;4.80;;;32.90;67.10;;;;;;5054418;28;20449;-84
2022/07/13 11:31:23;;;;;;;5.23;4.73;;;32.70;67.70;;;;;;5062017;28;20632;-83
2022/07/13 11:33:50;;;;;;;5.57;5.07;;;32.30;68.50;;;;;;5052009;28;21057;-82
2022/07/13 11:36:23;;;;;;;4.87;4.43;;;32.30;69.10;;;;;;5048732;28;20482;-82
2022/07/13 11:38:50;;;;;;;4.63;4.10;;;32.40;69.40;;;;;;5053359;28;20473;-83
2022/07/13 11:41:20;;;;;;;7.50;4.50;;;32.50;69.90;;;;;;5060775;28;20473;-82
2022/07/13 11:43:47;;;;;;;4.63;4.23;;;32.60;69.00;;;;;;5048835;28;20823;-84
2022/07/13 11:46:14;;;;;;;4.50;4.07;;;32.30;69.60;;;;;;5048643;28;20542;-84
2022/07/13 11:48:42;;;;;;;7.43;4.50;;;32.20;70.00;;;;;;5047837;28;20515;-84
2022/07/13 11:51:09;;;;;;;5.97;4.77;;;32.10;69.50;;;;;;5049472;28;20490;-84
2022/07/13 11:53:36;;;;;;;5.30;4.23;;;31.90;69.90;;;;;;5048941;28;20498;-83
2022/07/13 11:56:08;;;;;;;5.17;4.50;;;31.50;71.60;;;;;;5048179;28;20443;-84
2022/07/13 11:58:39;;;;;;;5.10;4.60;;;31.40;72.80;;;;;;5048077;28;20475;-83
2022/07/13 12:01:11;;;;;;;5.10;4.60;;;31.40;72.00;;;;;;5046880;28;20546;-82
2022/07/13 12:03:38;;;;;;;7.40;3.80;;;31.50;71.60;;;;;;5048974;28;20473;-85
2022/07/13 12:06:08;;;;;;;6.67;4.23;;;31.70;73.00;;;;;;5051738;28;20537;-84
2022/07/13 12:08:36;;;;;;;7.63;3.73;;;31.80;71.90;;;;;;5057840;28;20481;-82
2022/07/13 12:11:05;;;;;;;5.00;4.50;;;31.80;73.00;;;;;;5061131;28;20470;-82
2022/07/13 12:13:34;;;;;;;5.53;4.43;;;31.70;72.40;;;;;;5050813;28;20501;-85
2022/07/13 12:16:01;;;;;;;8.20;4.10;;;31.20;73.20;;;;;;5063186;28;20450;-83
2022/07/13 12:18:28;;;;;;;4.97;4.17;;;31.10;73.60;;;;;;5056299;28;20450;-83
2022/07/13 12:20:55;;;;;;;5.37;3.50;;;31.10;74.00;;;;;;5056246;28;20963;-84
2022/07/13 12:23:24;;;;;;;6.67;3.40;;;31.20;73.90;;;;;;5054662;28;21078;-83
2022/07/13 12:26:06;;;;;;;8.03;3.73;;;31.40;73.20;;;;;;5052907;28;20455;-84
2022/07/13 12:28:33;;;;;;;3.97;3.67;;;31.40;73.60;;;;;;5057071;28;20454;-83
2022/07/13 12:31:01;;;;;;;4.93;4.43;;;31.40;73.20;;;;;;5053394;28;20467;-84
2022/07/13 12:33:42;;;;;;;5.47;4.60;;;31.20;74.20;;;;;;5051643;28;20482;-84
2022/07/13 12:36:10;;;;;;;4.20;3.30;;;31.40;74.10;;;;;;5057691;28;20421;-83
2022/07/13 12:38:56;;;;;;;3.33;2.73;;;31.40;74.10;;;;;;5064315;28;20441;-83
2022/07/13 12:41:27;;;;;;;5.80;3.80;;;31.60;74.20;;;;;;5050731;28;20534;-84
2022/07/13 12:43:59;;;;;;;7.17;3.43;;;31.60;73.90;;;;;;5050974;28;20470;-82
2022/07/13 12:46:26;;;;;;;5.47;3.77;;;31.30;73.40;;;;;;5061548;28;20463;-82
2022/07/13 12:49:01;;;;;;;5.53;3.40;;;30.90;73.80;;;;;;5061446;28;20435;-84
2022/07/13 12:51:50;;;;;;;4.03;3.03;;;30.70;74.70;;;;;;5062898;28;20492;-83
2022/07/13 12:54:39;;;;;;;3.80;2.80;;;30.70;74.20;;;;;;5055701;28;20492;-85
2022/07/13 12:57:10;;;;;;;3.13;2.47;;;30.90;74.30;;;;;;5047840;28;20466;-85
2022/07/13 12:59:38;;;;;;;5.13;3.40;;;30.70;73.50;;;;;;5048929;28;20443;-84
2022/07/13 13:02:05;;;;;;;5.77;3.60;;;30.70;73.10;;;;;;5049293;28;20477;-85
2022/07/13 13:04:33;;;;;;;5.47;3.30;;;30.50;73.50;;;;;;5051259;28;20514;-82